Time;durP1;ratioP1;P1;durP2;ratioP2;P2;SDS_P1;SDS_P2;PMS_P1;PMS_P2;Temp;Humidity;BMP_temperature;BMP_pressure;BME280_temperature;BME280_humidity;BME280_pressure;Samples;Min_cycle;Max_cycle;Signal;HPM_P1;HPM_P2
2022/05/01 00:02:17;;;;;;;19.20;10.27;;;7.50;99.90;;;6.24;93.31;101905.38;4930887;28;20034;-76
2022/05/01 00:04:43;;;;;;;20.65;11.73;;;7.50;99.90;;;6.27;93.35;101900.13;4954889;28;20453;-76
2022/05/01 00:07:12;;;;;;;21.35;10.73;;;7.50;99.90;;;6.30;93.15;101894.88;4914275;28;20058;-76
2022/05/01 00:09:40;;;;;;;20.92;11.57;;;7.50;99.90;;;6.31;93.32;101894.84;4939969;28;20171;-77
2022/05/01 00:12:08;;;;;;;18.20;11.90;;;7.50;99.90;;;6.34;93.96;101891.34;4944791;28;20046;-77
2022/05/01 00:14:34;;;;;;;16.70;11.48;;;7.60;99.90;;;6.36;94.51;101892.19;4935434;28;20844;-76
2022/05/01 00:17:01;;;;;;;24.20;11.45;;;7.60;99.90;;;6.41;95.22;101890.38;4942053;28;20027;-77
2022/05/01 00:19:27;;;;;;;23.65;11.00;;;7.60;99.90;;;6.42;95.49;101891.28;4934773;28;20121;-76
2022/05/01 00:22:00;;;;;;;21.65;10.60;;;7.70;99.90;;;6.45;95.35;101883.38;4933146;28;20494;-77
2022/05/01 00:24:26;;;;;;;20.40;10.32;;;7.70;99.90;;;6.46;94.93;101878.13;4943567;28;20060;-77
2022/05/01 00:26:52;;;;;;;21.40;10.48;;;7.70;99.90;;;6.48;94.30;101886.84;4938819;28;20046;-76
2022/05/01 00:29:18;;;;;;;17.85;9.52;;;7.70;99.90;;;6.48;94.29;101881.59;4950388;28;20033;-76
2022/05/01 00:31:43;;;;;;;18.85;10.77;;;7.70;99.90;;;6.50;93.60;101884.19;4939514;28;20017;-76
2022/05/01 00:36:53;;;;;;;15.73;8.27;;;7.70;99.90;;;6.44;92.56;101889.50;4915444;28;20058;-77
2022/05/01 00:39:19;;;;;;;17.73;9.95;;;7.60;99.90;;;6.38;92.07;101886.94;4906855;28;20035;-77
2022/05/01 00:41:46;;;;;;;15.95;10.32;;;7.60;99.90;;;6.28;91.43;101883.56;4935676;28;20043;-76
2022/05/01 00:44:15;;;;;;;21.60;10.43;;;7.50;99.90;;;6.18;91.37;101888.03;4932065;28;20072;-77
2022/05/01 00:46:53;;;;;;;17.25;10.75;;;7.40;99.90;;;6.07;91.96;101890.75;4916604;28;20030;-77
2022/05/01 00:49:27;;;;;;;17.20;8.88;;;7.30;99.90;;;5.97;91.65;101881.25;4923510;28;20030;-76
2022/05/01 00:52:09;;;;;;;18.60;10.05;;;7.20;99.90;;;5.87;91.56;101890.84;4941940;28;20158;-77
2022/05/01 00:54:42;;;;;;;16.38;9.48;;;7.10;99.90;;;5.76;91.63;101879.63;4958764;28;20112;-77
2022/05/01 00:57:08;;;;;;;17.27;9.43;;;7.00;99.90;;;5.67;91.42;101879.72;4931035;28;20116;-77
2022/05/01 00:59:37;;;;;;;16.40;8.48;;;7.00;99.90;;;5.59;92.17;101881.50;4917606;28;20034;-77
2022/05/01 01:02:05;;;;;;;12.40;6.78;;;6.90;99.90;;;5.48;91.71;101874.63;4932037;28;20054;-76
2022/05/01 01:04:31;;;;;;;17.48;9.02;;;6.80;99.90;;;5.37;91.33;101875.59;4918122;28;20084;-77
2022/05/01 01:07:06;;;;;;;14.40;8.52;;;6.70;99.90;;;5.25;91.32;101869.56;4933121;28;20030;-77
2022/05/01 01:09:33;;;;;;;13.00;6.88;;;6.60;99.90;;;5.12;91.53;101871.38;4920724;28;20101;-76
2022/05/01 01:14:43;;;;;;;14.85;7.75;;;6.30;99.90;;;4.88;91.68;101876.72;4903615;28;20039;-77
2022/05/01 01:17:10;;;;;;;12.23;5.82;;;6.20;99.90;;;4.73;92.50;101877.66;4912537;28;20430;-77
2022/05/01 01:19:36;;;;;;;13.30;6.75;;;6.10;99.90;;;4.62;92.73;101872.50;4956672;28;20042;-77
2022/05/01 01:22:06;;;;;;;23.38;11.07;;;6.00;99.90;;;4.54;92.68;101876.84;4913982;28;20034;-77
2022/05/01 01:24:41;;;;;;;15.93;9.05;;;5.90;99.90;;;4.47;93.24;101873.41;4939121;28;20037;-76
2022/05/01 01:27:07;;;;;;;11.77;8.13;;;5.80;99.90;;;4.41;93.64;101878.63;4933178;28;20109;-77
2022/05/01 01:32:22;;;;;;;25.02;11.70;;;5.80;99.90;;;4.45;95.21;101879.47;4904966;28;20040;-77
2022/05/01 01:34:50;;;;;;;25.77;12.90;;;5.80;99.90;;;4.50;96.04;101875.13;4901431;28;20036;-77
2022/05/01 01:37:17;;;;;;;19.08;11.70;;;5.90;99.90;;;4.59;96.86;101880.31;4944322;28;20034;-77
2022/05/01 01:39:44;;;;;;;21.60;11.18;;;5.90;99.90;;;4.66;97.19;101876.78;4969556;28;20060;-76
2022/05/01 01:42:15;;;;;;;20.33;10.55;;;6.00;99.90;;;4.72;97.38;101874.16;4908749;28;20080;-77
2022/05/01 01:44:41;;;;;;;18.98;8.55;;;6.00;99.90;;;4.73;97.13;101883.75;4941810;28;20065;-77
2022/05/01 01:47:07;;;;;;;331.85;24.13;;;6.00;99.90;;;4.63;95.96;101891.63;4932620;28;20034;-77
2022/05/01 01:49:33;;;;;;;17.27;9.05;;;5.90;99.90;;;4.51;94.77;101887.28;4936869;28;20050;-76
2022/05/01 01:51:59;;;;;;;17.33;8.75;;;5.80;99.90;;;4.44;94.60;101881.22;4916954;28;20035;-77
2022/05/01 01:54:28;;;;;;;15.90;8.77;;;5.90;99.90;;;4.47;95.28;101885.56;4930487;28;20027;-76
2022/05/01 01:56:53;;;;;;;27.75;13.07;;;5.90;99.90;;;4.51;95.65;101882.97;4918822;28;20046;-77
2022/05/01 01:59:19;;;;;;;19.88;11.35;;;5.90;99.90;;;4.58;96.75;101883.81;4917282;28;20230;-77
2022/05/01 02:01:45;;;;;;;16.52;10.18;;;5.90;99.90;;;4.62;97.10;101880.31;4939949;28;20038;-76
2022/05/01 02:04:10;;;;;;;15.93;8.13;;;6.00;99.90;;;4.65;97.38;101882.03;4923731;28;20049;-77
2022/05/01 02:06:37;;;;;;;11.88;7.68;;;6.00;99.90;;;4.67;96.70;101878.53;4905114;28;20105;-76
2022/05/01 02:09:06;;;;;;;15.65;8.75;;;6.00;99.90;;;4.69;96.64;101876.81;4935821;28;20046;-76
2022/05/01 02:11:34;;;;;;;21.15;11.82;;;6.00;99.90;;;4.74;96.36;101876.78;4928253;28;20034;-77
2022/05/01 02:14:00;;;;;;;16.45;10.75;;;6.10;99.90;;;4.77;96.45;101873.28;4881986;28;20679;-77
2022/05/01 02:16:25;;;;;;;24.35;11.93;;;6.00;99.90;;;4.80;96.71;101876.75;4892777;28;20043;-76
2022/05/01 02:18:51;;;;;;;17.45;11.32;;;6.10;99.90;;;4.83;97.05;101874.13;4960764;28;20144;-77
2022/05/01 02:21:35;;;;;;;15.75;10.02;;;6.10;99.90;;;4.87;97.29;101877.59;4906897;28;20033;-76
2022/05/01 02:24:12;;;;;;;19.23;11.10;;;6.20;99.90;;;4.91;97.36;101874.97;4943312;28;20042;-76
2022/05/01 02:26:39;;;;;;;21.38;10.70;;;6.20;99.90;;;4.94;97.69;101880.16;4942877;28;20049;-76
2022/05/01 02:29:09;;;;;;;22.10;11.80;;;6.20;99.90;;;5.00;97.72;101873.19;4934928;28;20097;-77
2022/05/01 02:31:38;;;;;;;23.15;11.73;;;6.30;99.90;;;5.05;97.80;101880.09;4940867;28;20476;-77
2022/05/01 02:34:03;;;;;;;24.48;11.27;;;6.40;99.90;;;5.08;97.46;101876.63;4913754;28;20129;-77
2022/05/01 02:36:29;;;;;;;17.65;11.23;;;6.30;99.90;;;5.10;97.75;101880.97;4937263;28;20109;-78
2022/05/01 02:38:55;;;;;;;20.55;10.95;;;6.40;99.90;;;5.12;97.37;101875.75;4924451;28;20033;-76
2022/05/01 02:41:20;;;;;;;16.42;10.27;;;6.40;99.90;;;5.14;97.46;101882.69;4938021;28;20045;-77
2022/05/01 02:43:51;;;;;;;16.95;9.63;;;6.40;99.90;;;5.17;97.38;101875.72;4892104;28;20026;-76
2022/05/01 02:46:16;;;;;;;24.83;9.30;;;6.50;99.90;;;5.19;97.04;101877.44;4916627;28;20023;-77
2022/05/01 02:48:43;;;;;;;17.77;9.95;;;6.50;99.90;;;5.23;96.44;101875.69;4933242;28;20057;-77
2022/05/01 02:51:10;;;;;;;18.98;9.10;;;6.50;99.90;;;5.24;96.44;101882.63;4940343;28;20491;-77
2022/05/01 02:53:36;;;;;;;20.63;10.07;;;6.50;99.90;;;5.25;95.75;101876.53;4920555;28;20036;-76
2022/05/01 02:56:11;;;;;;;18.27;8.90;;;6.50;99.90;;;5.28;96.08;101873.91;4946537;28;20121;-77
2022/05/01 02:58:37;;;;;;;16.45;8.00;;;6.60;99.90;;;5.30;95.33;101880.84;4916984;28;20035;-77
2022/05/01 03:01:02;;;;;;;15.98;8.60;;;6.60;99.90;;;5.34;95.17;101882.56;4932659;28;20029;-77
2022/05/01 03:03:31;;;;;;;13.43;7.95;;;6.60;99.90;;;5.39;95.34;101882.53;4921082;28;20020;-77
2022/05/01 03:06:00;;;;;;;15.27;8.25;;;6.60;99.90;;;5.43;95.15;101875.53;4926535;28;20034;-77
2022/05/01 03:08:27;;;;;;;16.23;8.35;;;6.70;99.90;;;5.43;95.06;101875.53;4894805;28;20025;-76
2022/05/01 03:10:52;;;;;;;21.83;8.15;;;6.70;99.90;;;5.43;95.45;101873.78;4942228;28;20030;-77
2022/05/01 03:13:18;;;;;;;13.88;7.82;;;6.70;99.90;;;5.49;95.05;101873.75;4945133;28;20441;-77
2022/05/01 03:15:47;;;;;;;11.48;7.53;;;6.80;99.90;;;5.54;94.59;101878.94;4928587;28;20023;-76
2022/05/01 03:23:46;;;;;;;15.75;8.27;;;6.90;99.90;;;5.64;93.67;101875.38;4944748;28;20032;-76
2022/05/01 03:26:16;;;;;;;16.60;6.68;;;6.90;99.90;;;5.67;93.01;101864.03;4917193;28;20027;-77
2022/05/01 03:28:43;;;;;;;13.98;7.22;;;6.90;99.90;;;5.71;93.05;101869.22;4932662;28;20047;-77
2022/05/01 03:31:10;;;;;;;13.48;7.40;;;7.00;99.90;;;5.73;92.59;101864.00;4925320;28;20067;-77
2022/05/01 03:33:42;;;;;;;15.73;7.47;;;7.00;99.90;;;5.76;92.33;101863.94;4911004;28;20164;-76
2022/05/01 03:36:09;;;;;;;18.70;7.05;;;7.00;99.90;;;5.78;92.10;101864.81;4931578;28;20122;-77
2022/05/01 03:38:40;;;;;;;12.30;7.10;;;7.00;99.90;;;5.79;92.20;101863.94;4912851;28;20118;-77
2022/05/01 03:41:12;;;;;;;19.00;7.57;;;7.00;99.90;;;5.80;91.71;101865.66;4943535;28;20058;-76
2022/05/01 03:43:38;;;;;;;11.35;6.88;;;7.00;99.90;;;5.82;91.66;101869.13;4914052;28;20069;-77
2022/05/01 03:46:05;;;;;;;16.15;6.68;;;7.00;99.90;;;5.83;91.56;101870.88;4922167;28;20034;-77
2022/05/01 03:48:31;;;;;;;11.30;6.95;;;7.10;99.90;;;5.85;91.46;101873.47;4896829;28;20080;-79
2022/05/01 03:51:02;;;;;;;13.27;6.78;;;7.10;99.90;;;5.87;91.41;101874.31;4946301;28;20042;-76
2022/05/01 03:53:31;;;;;;;12.25;7.32;;;7.10;99.90;;;5.90;91.43;101871.69;4928484;28;20085;-77
2022/05/01 03:55:58;;;;;;;16.25;7.82;;;7.10;99.90;;;5.92;90.96;101870.78;4912718;28;20042;-77
2022/05/01 03:58:23;;;;;;;17.17;7.50;;;7.20;99.90;;;5.98;91.10;101874.25;4940460;28;20041;-76
2022/05/01 04:00:52;;;;;;;14.25;7.15;;;7.20;99.90;;;6.02;90.85;101873.34;4923131;28;20089;-77
2022/05/01 04:03:18;;;;;;;11.35;7.05;;;7.20;99.90;;;6.06;90.33;101878.53;4932792;28;20516;-77
2022/05/01 04:05:44;;;;;;;12.52;7.47;;;7.20;99.90;;;6.10;90.24;101876.75;4937527;28;20035;-76
2022/05/01 04:08:10;;;;;;;14.65;7.20;;;7.30;99.90;;;6.15;90.20;101877.56;4926654;28;20058;-76
2022/05/01 04:10:38;;;;;;;18.73;7.45;;;7.30;99.90;;;6.20;90.26;101873.19;4921221;28;20098;-76
2022/05/01 04:13:12;;;;;;;13.35;7.70;;;7.40;99.90;;;6.21;90.46;101881.88;4929004;28;20081;-77
2022/05/01 04:15:38;;;;;;;16.60;8.20;;;7.40;99.90;;;6.26;90.59;101883.56;4915081;28;20079;-77
2022/05/01 04:18:08;;;;;;;10.43;6.88;;;7.40;99.90;;;6.31;90.31;101881.78;4939510;28;20023;-76
2022/05/01 04:20:38;;;;;;;13.18;7.32;;;7.50;99.90;;;6.36;90.07;101889.56;4940466;28;20038;-76
2022/05/01 04:23:07;;;;;;;21.73;7.30;;;7.50;99.90;;;6.40;89.58;101883.44;4937151;28;20092;-76
2022/05/01 04:25:34;;;;;;;12.30;7.00;;;7.50;99.90;;;6.40;89.91;101880.81;4935494;28;20631;-76
2022/05/01 04:28:08;;;;;;;13.88;7.97;;;7.60;99.90;;;6.45;90.08;101886.84;4934116;28;20022;-77
2022/05/01 04:30:34;;;;;;;12.82;7.35;;;7.60;99.90;;;6.51;89.70;101888.53;4945010;28;20045;-76
2022/05/01 04:33:03;;;;;;;14.55;8.02;;;7.70;99.90;;;6.56;90.07;101887.59;4902428;28;20038;-77
2022/05/01 04:35:37;;;;;;;10.15;7.50;;;7.70;99.90;;;6.66;90.20;101884.91;4977243;28;20030;-77
2022/05/01 04:38:09;;;;;;;12.50;7.47;;;7.80;99.90;;;6.81;90.38;101891.69;4927935;28;20038;-76
2022/05/01 04:40:40;;;;;;;14.10;7.95;;;7.90;99.90;;;6.96;89.53;101896.75;4886470;28;20037;-77
2022/05/01 04:43:17;;;;;;;17.05;8.27;;;8.00;99.90;;;7.14;89.65;101898.25;4904603;28;20039;-78
2022/05/01 04:45:46;;;;;;;12.77;7.63;;;8.20;99.90;;;7.27;88.96;101901.56;4965909;28;20037;-76
2022/05/01 04:48:14;;;;;;;16.58;7.32;;;8.30;99.90;;;7.40;88.62;101893.47;4942996;28;20042;-77
2022/05/01 04:50:40;;;;;;;17.73;7.72;;;8.40;99.90;;;7.55;88.12;101897.63;4944020;28;20050;-78
2022/05/01 04:53:11;;;;;;;14.63;8.20;;;8.50;99.90;;;7.68;87.42;101897.44;4922085;28;20037;-77
2022/05/01 04:55:39;;;;;;;17.98;7.35;;;8.70;99.90;;;7.87;87.01;101895.41;4941101;28;20047;-77
2022/05/01 04:58:06;;;;;;;19.58;7.70;;;9.10;99.90;;;9.27;84.59;101904.09;4930395;28;20160;-77
2022/05/01 05:00:32;;;;;;;11.43;6.95;;;9.40;99.90;;;8.98;82.63;101899.44;4920999;28;20108;-76
2022/05/01 05:03:02;;;;;;;12.38;7.43;;;9.60;99.90;;;9.03;81.97;101905.50;4909995;28;20045;-76
2022/05/01 05:05:31;;;;;;;17.05;8.77;;;9.70;99.90;;;9.11;81.35;101907.94;4942085;28;20115;-77
2022/05/01 05:09:53;;;;;;;15.77;7.60;;;9.80;99.90;;;9.09;81.06;101904.47;4928441;28;20018;-76
2022/05/01 05:10:46;;;;;;;10.02;6.75;;;9.90;99.90;;;9.15;80.59;101904.34;4960229;28;20128;-77
2022/05/01 05:13:14;;;;;;;14.90;6.75;;;10.00;99.90;;;9.25;79.58;101903.25;4966965;28;20037;-77
2022/05/01 05:15:40;;;;;;;9.73;6.90;;;10.10;99.90;;;9.57;78.94;101910.41;4921397;28;20549;-76
2022/05/01 05:18:06;;;;;;;13.77;6.80;;;10.20;99.90;;;9.74;77.79;101907.38;4907922;28;20026;-78
2022/05/01 05:20:32;;;;;;;12.32;6.63;;;10.70;99.90;;;11.59;72.46;101907.50;4941907;28;20030;-78
2022/05/01 05:23:00;;;;;;;15.63;7.15;;;11.20;99.90;;;12.97;69.05;101912.44;4916144;28;20174;-78
2022/05/01 05:25:29;;;;;;;12.27;7.13;;;12.10;99.90;;;15.64;62.17;101913.31;4931300;28;20035;-78
2022/05/01 05:27:55;;;;;;;13.43;6.32;;;13.60;99.90;;;16.78;55.06;101897.72;4944060;28;20418;-77
2022/05/01 05:30:20;;;;;;;11.40;6.10;;;15.40;99.90;;;20.80;47.22;101906.56;4901489;28;20136;-77
2022/05/01 05:32:46;;;;;;;8.10;6.18;;;17.20;99.90;;;22.76;42.02;101921.41;4929190;28;20042;-77
2022/05/01 05:35:12;;;;;;;12.73;6.13;;;18.90;99.90;;;23.93;39.37;101936.97;4916257;28;20188;-77
2022/05/01 05:37:45;;;;;;;18.58;6.22;;;20.20;99.90;;;25.77;36.51;101960.38;4948645;28;20172;-77
2022/05/01 05:40:11;;;;;;;9.82;5.53;;;21.60;99.90;;;26.86;34.32;101970.91;4917125;28;20047;-77
2022/05/01 05:42:37;;;;;;;11.60;6.00;;;22.80;97.20;;;28.17;32.33;101981.34;4939961;28;20026;-75
2022/05/01 05:45:03;;;;;;;9.88;5.43;;;23.80;93.50;;;28.05;31.60;101989.88;4945134;28;20061;-75
2022/05/01 05:47:29;;;;;;;7.32;5.30;;;24.30;93.80;;;27.89;31.96;101993.31;4958081;28;20027;-75
2022/05/01 05:49:55;;;;;;;11.60;5.43;;;24.40;93.10;;;27.27;32.62;102009.31;4932458;28;20093;-76
2022/05/01 05:52:23;;;;;;;9.18;5.20;;;24.40;92.80;;;27.66;31.87;102019.91;4969212;28;20057;-76
2022/05/01 05:54:49;;;;;;;11.77;5.78;;;24.70;91.30;;;28.29;30.72;102036.09;4942749;28;20038;-76
2022/05/01 05:57:14;;;;;;;12.70;5.53;;;25.10;91.40;;;29.00;30.41;102039.69;4937632;28;20514;-76
2022/05/01 05:59:40;;;;;;;8.98;5.55;;;25.60;90.80;;;28.72;30.55;102039.84;4933772;28;20053;-76
2022/05/01 06:02:07;;;;;;;8.02;5.43;;;25.80;90.50;;;28.79;30.91;102043.66;4929337;28;20399;-76
2022/05/01 06:04:33;;;;;;;10.05;5.22;;;26.00;90.00;;;28.94;29.99;102053.88;4937132;28;20042;-76
2022/05/01 06:06:58;;;;;;;9.68;5.40;;;26.40;88.50;;;29.43;29.26;102063.13;4934614;28;20179;-76
2022/05/01 06:09:26;;;;;;;9.23;5.28;;;26.70;87.70;;;30.11;28.44;102074.91;4928186;28;20503;-77
2022/05/01 06:11:52;;;;;;;12.70;5.40;;;27.10;86.70;;;30.54;28.14;102069.34;4939582;28;20398;-76
2022/05/01 06:14:18;;;;;;;10.88;5.60;;;27.50;85.90;;;30.85;27.62;102081.19;4949086;28;20088;-76
2022/05/01 06:16:43;;;;;;;8.18;5.53;;;27.70;83.30;;;30.51;28.06;102072.41;4913053;28;20030;-76
2022/05/01 06:19:09;;;;;;;7.38;5.43;;;28.00;83.10;;;30.64;28.14;102084.44;4958212;28;20029;-75
2022/05/01 06:21:35;;;;;;;7.50;5.45;;;27.90;80.80;;;29.91;27.99;102085.19;4937015;28;20050;-76
2022/05/01 06:24:00;;;;;;;10.20;5.97;;;28.00;82.40;;;30.34;27.83;102090.56;4936388;28;20120;-76
2022/05/01 06:26:29;;;;;;;8.23;5.70;;;28.00;80.70;;;30.24;28.00;102091.56;4944685;28;20058;-76
2022/05/01 06:28:55;;;;;;;9.52;6.28;;;28.00;78.30;;;30.15;27.51;102105.28;4944159;28;20093;-76
2022/05/01 06:31:21;;;;;;;11.57;6.65;;;28.20;78.90;;;30.65;27.20;102110.63;4958611;28;20449;-77
2022/05/01 06:33:46;;;;;;;;;;;28.40;78.90;;;31.65;26.88;102110.25;4953037;28;20158;-75
2022/05/01 06:36:17;;;;;;;14.05;6.93;;;29.30;80.50;;;32.22;26.52;102127.31;4941525;28;20003;-75
2022/05/01 06:38:48;;;;;;;13.35;6.28;;;29.90;79.60;;;32.78;25.85;102127.91;4935499;28;20030;-75
2022/05/01 06:41:14;;;;;;;10.73;6.05;;;30.50;77.10;;;33.37;25.22;102140.81;5000777;23;20123;-77
2022/05/01 06:43:40;;;;;;;16.27;6.38;;;31.10;74.70;;;33.37;25.14;102134.47;4974976;28;20498;-77
2022/05/01 06:46:06;;;;;;;10.63;6.63;;;31.40;74.70;;;33.82;24.14;102144.34;4980139;28;20061;-76
2022/05/01 06:48:32;;;;;;;10.75;6.82;;;31.90;74.10;;;34.17;24.03;102147.31;4982797;28;20045;-76
2022/05/01 06:50:58;;;;;;;11.90;6.47;;;32.30;72.10;;;34.27;23.49;102153.28;4954798;28;20027;-77
2022/05/01 06:53:24;;;;;;;12.30;6.72;;;32.60;70.20;;;34.11;23.80;102143.44;4964177;28;20090;-77
2022/05/01 06:55:50;;;;;;;10.40;7.00;;;32.70;70.60;;;33.95;23.98;102149.09;4964955;28;20086;-77
2022/05/01 06:58:17;;;;;;;11.23;6.95;;;32.60;68.50;;;33.76;24.20;102157.91;4962214;28;20502;-77
2022/05/01 07:00:43;;;;;;;14.38;7.40;;;32.60;66.80;;;33.61;23.81;102153.34;4962175;28;20038;-77
2022/05/01 07:03:09;;;;;;;11.32;6.60;;;32.50;67.40;;;33.42;24.64;102157.44;4962579;28;20046;-77
2022/05/01 07:05:34;;;;;;;11.95;6.80;;;32.50;68.70;;;33.26;25.11;102150.31;4978340;28;20554;-77
2022/05/01 07:08:00;;;;;;;12.85;6.35;;;32.40;66.10;;;33.01;24.69;102157.88;4962011;28;20035;-77
2022/05/01 07:10:26;;;;;;;11.95;6.35;;;32.20;66.20;;;32.26;24.63;102164.06;4957861;28;21726;-77
2022/05/01 07:12:52;;;;;;;8.00;5.20;;;31.80;64.50;;;31.89;25.13;102162.88;4962816;28;20084;-77
2022/05/01 07:15:18;;;;;;;9.38;5.78;;;31.50;66.00;;;31.56;25.31;102157.59;4962105;28;20057;-77
2022/05/01 07:17:44;;;;;;;12.52;6.25;;;31.20;66.60;;;31.02;26.10;102162.81;4950195;28;20046;-76
2022/05/01 07:20:10;;;;;;;11.68;5.82;;;30.80;66.30;;;30.48;26.65;102166.00;4947896;28;20046;-77
2022/05/01 07:22:36;;;;;;;10.45;5.55;;;30.50;66.50;;;30.48;26.60;102167.88;4981102;28;20118;-79
2022/05/01 07:25:03;;;;;;;8.82;5.70;;;30.50;68.30;;;30.98;26.08;102165.00;4931727;28;20118;-77
2022/05/01 07:27:28;;;;;;;15.35;6.32;;;30.70;66.60;;;31.14;25.70;102164.13;4956634;28;20023;-78
2022/05/01 07:29:54;;;;;;;9.77;5.93;;;31.00;66.40;;;31.58;25.33;102171.88;4959790;28;20077;-78
2022/05/01 07:32:20;;;;;;;11.13;5.70;;;31.30;66.20;;;31.96;24.68;102177.47;4963604;28;20153;-76
2022/05/01 07:34:45;;;;;;;9.30;5.65;;;31.70;64.90;;;32.23;24.59;102178.06;4955241;28;20050;-76
2022/05/01 07:37:13;;;;;;;11.20;4.25;;;31.90;64.10;;;31.92;24.07;102181.59;4955531;28;20034;-77
2022/05/01 07:39:39;;;;;;;6.38;4.25;;;31.40;58.30;;;31.10;23.99;102183.69;4961062;28;20043;-77
2022/05/01 07:42:05;;;;;;;7.97;4.78;;;30.70;59.10;;;29.83;24.99;102182.94;4954668;28;20046;-76
2022/05/01 07:44:31;;;;;;;7.32;4.00;;;30.20;61.40;;;29.57;25.61;102172.94;4995162;28;20027;-77
2022/05/01 07:46:58;;;;;;;7.43;4.57;;;29.90;60.60;;;29.53;25.62;102174.28;4961431;28;20034;-77
2022/05/01 07:49:25;;;;;;;5.55;3.65;;;29.20;63.60;;;28.36;27.86;102158.25;4963198;28;20126;-77
2022/05/01 07:51:50;;;;;;;9.13;3.67;;;29.20;63.20;;;28.86;26.68;102154.16;4978396;28;20077;-77
2022/05/01 07:54:16;;;;;;;6.03;3.25;;;29.20;61.40;;;29.09;26.20;102159.91;4963929;28;20066;-77
2022/05/01 07:56:42;;;;;;;5.78;2.90;;;28.90;60.60;;;28.20;26.80;102158.91;4958619;28;20125;-76
2022/05/01 07:59:08;;;;;;;6.88;3.17;;;28.50;61.60;;;27.74;26.30;102160.72;4970116;28;20200;-76
2022/05/01 08:01:34;;;;;;;7.40;3.10;;;27.70;63.40;;;26.43;28.42;102145.97;4942774;28;20066;-77
2022/05/01 08:06:45;;;;;;;8.82;3.63;;;27.40;62.30;;;26.89;27.87;102135.44;4961423;28;20037;-76
2022/05/01 08:09:10;;;;;;;6.88;3.05;;;27.30;63.60;;;26.79;28.08;102138.19;4946529;28;20042;-76
2022/05/01 08:11:36;;;;;;;8.80;4.43;;;26.90;65.60;;;26.22;29.32;102132.59;4961460;28;20458;-77
2022/05/01 08:14:03;;;;;;;8.93;4.28;;;26.60;66.30;;;25.86;29.62;102134.91;4969129;28;20045;-76
2022/05/01 08:16:29;;;;;;;8.65;4.25;;;26.10;67.40;;;25.16;30.51;102123.94;4951367;28;20044;-76
2022/05/01 08:21:39;;;;;;;9.35;4.60;;;25.30;68.20;;;24.00;32.61;102123.81;4963204;28;20081;-77
2022/05/01 08:24:06;;;;;;;8.13;4.03;;;24.80;68.70;;;23.55;33.09;102108.53;4975216;28;20031;-76
2022/05/01 08:26:33;;;;;;;9.52;4.80;;;24.50;71.00;;;23.48;33.88;102107.31;4974502;28;20100;-77
2022/05/01 08:28:59;;;;;;;12.13;5.28;;;24.20;72.70;;;23.32;34.55;102102.28;4978732;28;20521;-76
2022/05/01 08:31:25;;;;;;;11.85;4.65;;;23.80;71.40;;;22.95;34.00;102106.97;4959997;28;20034;-76
2022/05/01 08:33:51;;;;;;;15.05;5.30;;;23.00;72.60;;;21.39;36.29;102096.06;4976196;28;20022;-77
2022/05/01 08:36:17;;;;;;;9.13;4.00;;;22.60;77.10;;;21.54;37.10;102101.34;4960320;28;20022;-76
2022/05/01 08:38:44;;;;;;;13.60;4.35;;;22.20;73.90;;;21.23;36.16;102099.00;4967323;28;20035;-76
2022/05/01 08:41:10;;;;;;;10.50;4.25;;;21.60;77.40;;;20.34;39.50;102098.78;4970301;28;20093;-76
2022/05/01 08:43:37;;;;;;;8.90;3.70;;;20.80;75.80;;;19.21;39.45;102086.34;4959259;28;20027;-76
2022/05/01 08:46:25;;;;;;;11.40;4.15;;;20.50;81.10;;;19.25;40.19;102087.88;4968428;28;20039;-76
2022/05/01 08:49:04;;;;;;;10.85;3.85;;;20.30;79.90;;;19.57;39.91;102077.00;4966286;28;20565;-76
2022/05/01 08:51:41;;;;;;;9.15;4.50;;;20.60;80.90;;;20.30;39.06;102074.06;4990798;28;20031;-77
2022/05/01 08:54:18;;;;;;;12.35;5.30;;;20.80;82.40;;;20.61;39.44;102075.56;4974354;28;20459;-76
2022/05/01 08:56:45;;;;;;;7.10;3.80;;;20.90;79.60;;;20.48;38.82;102070.16;4961260;28;20078;-75
2022/05/01 08:59:14;;;;;;;16.63;4.70;;;20.70;80.00;;;20.27;39.22;102074.28;4959233;28;20065;-76
2022/05/01 09:01:43;;;;;;;11.48;4.47;;;20.70;80.70;;;20.19;40.34;102064.06;4962457;28;20030;-77
2022/05/01 09:04:12;;;;;;;14.02;4.15;;;20.30;76.90;;;19.27;39.53;102064.63;4978338;28;20394;-76
2022/05/01 09:06:41;;;;;;;9.48;4.15;;;20.20;81.70;;;19.62;40.86;102057.03;4951730;28;20034;-77
2022/05/01 09:09:09;;;;;;;9.32;3.40;;;20.20;79.10;;;19.67;38.56;102054.94;4960602;28;20037;-77
2022/05/01 09:14:27;;;;;;;7.40;3.30;;;20.00;79.10;;;19.49;39.37;102056.09;4972799;28;20050;-76
2022/05/01 09:17:19;;;;;;;8.25;4.00;;;19.90;79.00;;;19.23;40.49;102050.59;4960070;28;20812;-76
2022/05/01 09:19:59;;;;;;;10.80;3.70;;;19.90;80.70;;;19.50;40.10;102047.13;4975374;28;20053;-76
2022/05/01 09:22:26;;;;;;;7.40;3.28;;;;;;;19.50;39.02;102041.78;4960489;28;20069;-76
2022/05/01 09:24:53;;;;;;;9.95;3.95;;;20.00;81.10;;;19.64;39.56;102043.59;4962695;28;20038;-76
2022/05/01 09:27:35;;;;;;;7.65;3.65;;;20.00;81.70;;;19.43;39.52;102030.63;4944289;28;20501;-77
2022/05/01 09:30:38;;;;;;;8.25;3.63;;;19.90;80.60;;;19.27;40.95;102032.56;4970712;28;20421;-76
2022/05/01 09:33:04;;;;;;;7.25;3.40;;;19.80;81.30;;;19.37;40.21;102027.50;4960209;28;20610;-77
2022/05/01 09:35:35;;;;;;;8.85;4.03;;;19.90;84.40;;;19.55;41.20;102025.50;4960160;28;20101;-77
2022/05/01 09:38:28;;;;;;;6.45;3.08;;;19.80;80.20;;;19.27;40.32;102029.91;4976989;28;20129;-76
2022/05/01 09:41:01;;;;;;;8.00;3.40;;;19.80;78.80;;;19.29;39.66;102030.66;4960190;28;20042;-76
2022/05/01 09:43:47;;;;;;;7.63;2.83;;;19.60;78.70;;;18.99;40.36;102030.75;4964833;28;20065;-76
2022/05/01 09:46:25;;;;;;;9.15;3.33;;;19.60;78.30;;;19.04;38.76;102020.63;4957792;28;20117;-76
2022/05/01 09:49:04;;;;;;;10.70;3.30;;;19.50;80.40;;;18.88;40.33;102015.41;4956401;28;20081;-76
2022/05/01 09:51:46;;;;;;;6.43;3.40;;;19.30;82.10;;;18.64;40.61;102015.91;4961781;28;20085;-76
2022/05/01 09:54:30;;;;;;;14.82;3.35;;;19.30;81.60;;;18.82;40.76;102007.78;4962323;28;20027;-77
2022/05/01 09:57:01;;;;;;;8.32;4.00;;;19.30;83.10;;;18.73;41.63;102014.50;4986932;28;20116;-76
2022/05/01 09:59:46;;;;;;;9.20;4.30;;;19.40;85.30;;;19.01;41.36;102002.16;4955825;28;20399;-76
2022/05/01 10:02:15;;;;;;;9.77;3.70;;;19.40;85.80;;;19.04;42.44;101999.28;4950794;28;20034;-77
2022/05/01 10:04:44;;;;;;;6.30;3.35;;;19.40;83.60;;;18.97;41.59;102001.47;4970402;28;20022;-76
2022/05/01 10:07:13;;;;;;;9.38;3.70;;;19.50;84.60;;;19.18;41.53;102001.09;4966301;28;22329;-76
2022/05/01 10:09:40;;;;;;;8.57;3.92;;;19.80;86.30;;;19.70;42.47;101994.25;4963269;28;20093;-77
2022/05/01 10:12:08;;;;;;;8.48;3.05;;;20.20;83.30;;;20.28;40.29;101985.91;4964597;28;20170;-76
2022/05/01 10:14:34;;;;;;;7.32;2.88;;;20.30;79.30;;;19.97;38.90;101989.78;4954784;28;20023;-76
2022/05/01 10:17:06;;;;;;;7.47;3.10;;;20.30;79.10;;;19.84;39.50;101989.72;4978391;28;20570;-77
2022/05/01 10:19:36;;;;;;;5.80;2.75;;;20.20;77.60;;;19.51;38.73;101994.59;4970096;28;20043;-76
2022/05/01 10:22:03;;;;;;;5.78;3.00;;;20.00;78.20;;;19.17;39.03;101992.22;4961948;28;20023;-76
2022/05/01 10:24:29;;;;;;;7.05;3.55;;;19.60;83.20;;;18.75;41.98;101988.56;4966229;28;20570;-76
2022/05/01 10:26:58;;;;;;;12.27;4.53;;;19.60;84.40;;;18.98;42.50;101986.31;4946633;28;20073;-76
2022/05/01 10:33:10;;;;;;;6.72;2.80;;;19.70;83.50;;;19.41;41.73;101983.63;4966090;28;20048;-77
2022/05/01 10:36:16;;;;;;;7.47;3.35;;;19.80;83.80;;;19.30;40.88;101973.63;4965701;28;20035;-76
2022/05/01 10:39:15;;;;;;;8.25;4.03;;;19.80;83.20;;;19.26;41.34;101975.66;4950062;28;20022;-76
2022/05/01 10:41:51;;;;;;;6.03;2.85;;;19.70;84.00;;;19.16;41.31;101979.00;4989780;28;20431;-77
2022/05/01 10:44:37;;;;;;;6.65;3.20;;;19.60;82.50;;;18.93;40.75;101977.75;4961534;28;20023;-76
2022/05/01 10:47:18;;;;;;;9.27;3.53;;;19.60;84.10;;;19.06;42.56;101971.53;4974775;28;20058;-76